Terminal Aerodrome Forecast
Issued by NWS Springfield, MO

Home | Current Version | Previous Version | Text Only | Print | Product List | Glossary On
Versions: 1 2 3 4 5 6 7 8 9 10 11 12 13 14
000
FTUS43 KSGF 280520
TAFSGF
TAF
KSGF 280520Z 2806/2906 17010KT P6SM FEW025 OVC250
     FM281100 18010KT P6SM BKN025
     FM281500 18010G15KT P6SM BKN040
     FM282000 21012G17KT P6SM SCT050 PROB30 2821/2824 4SM TSRA
      BKN040CB
     FM290000 22008KT P6SM SCT090=

USA.gov is the U.S. government's official web portal to all federal, state and local government web resources and services.